createdAt,value
2022-10-13T00:00:11.890Z,4.53
2022-10-13T00:02:42.713Z,4.60
2022-10-13T00:05:11.440Z,5.32
2022-10-13T00:07:40.660Z,4.13
2022-10-13T00:10:08.907Z,4.65
2022-10-13T00:12:37.189Z,4.65
2022-10-13T00:15:08.494Z,4.18
2022-10-13T00:17:38.085Z,4.82
2022-10-13T00:20:06.492Z,4.35
2022-10-13T00:22:34.904Z,4.47
2022-10-13T00:25:03.704Z,3.97
2022-10-13T00:27:31.652Z,4.40
2022-10-13T00:29:59.551Z,4.70
2022-10-13T00:32:27.445Z,4.43
2022-10-13T00:34:57.786Z,3.90
2022-10-13T00:37:26.629Z,4.05
2022-10-13T00:39:54.444Z,4.47
2022-10-13T00:42:23.640Z,4.40
2022-10-13T00:45:03.755Z,4.18
2022-10-13T00:47:36.680Z,3.90
2022-10-13T00:50:07.966Z,4.53
2022-10-13T00:52:36.832Z,3.83
2022-10-13T00:55:05.189Z,5.10
2022-10-13T00:57:33.629Z,3.95
2022-10-13T01:00:02.327Z,3.97
2022-10-13T01:02:32.370Z,3.75
2022-10-13T01:05:01.273Z,4.05
2022-10-13T01:07:30.793Z,3.92
2022-10-13T01:10:01.121Z,4.38
2022-10-13T01:12:34.772Z,3.80
2022-10-13T01:15:05.777Z,4.13
2022-10-13T01:17:36.263Z,4.20
2022-10-13T01:20:19.208Z,4.47
2022-10-13T01:22:58.315Z,4.38
2022-10-13T01:25:43.409Z,4.05
2022-10-13T01:28:24.609Z,3.80
2022-10-13T01:30:59.553Z,4.50
2022-10-13T01:33:32.160Z,4.90
2022-10-13T01:36:08.128Z,3.85
2022-10-13T01:38:39.365Z,3.80
2022-10-13T01:41:11.560Z,3.90
2022-10-13T01:43:41.631Z,3.75
2022-10-13T01:46:13.739Z,4.15
2022-10-13T01:48:42.905Z,4.07
2022-10-13T01:51:13.687Z,4.55
2022-10-13T01:53:42.383Z,4.10
2022-10-13T01:56:11.960Z,4.63
2022-10-13T01:58:44.065Z,3.30
2022-10-13T02:01:22.439Z,3.80
2022-10-13T02:03:54.440Z,4.78
2022-10-13T02:06:23.370Z,4.32
2022-10-13T02:08:57.058Z,3.53
2022-10-13T02:11:25.515Z,4.10
2022-10-13T02:13:58.921Z,4.38
2022-10-13T02:16:32.563Z,3.85
2022-10-13T02:19:00.841Z,2.08
2022-10-13T02:21:29.445Z,3.72
2022-10-13T02:24:01.498Z,4.43
2022-10-13T02:26:30.844Z,4.18
2022-10-13T02:29:08.742Z,4.18
2022-10-13T02:31:39.008Z,4.97
2022-10-13T02:34:06.843Z,4.13
2022-10-13T02:36:34.991Z,4.07
2022-10-13T02:39:03.204Z,4.60
2022-10-13T02:41:31.293Z,4.78
2022-10-13T02:43:59.195Z,4.13
2022-10-13T02:46:35.053Z,4.65
2022-10-13T02:49:04.699Z,4.30
2022-10-13T02:51:36.214Z,4.22
2022-10-13T02:54:07.851Z,4.32
2022-10-13T02:56:35.591Z,5.03
2022-10-13T02:59:03.277Z,4.60
2022-10-13T03:01:31.093Z,4.32
2022-10-13T03:03:59.020Z,5.05
2022-10-13T03:06:28.370Z,3.38
2022-10-13T03:08:57.373Z,4.22
2022-10-13T03:11:25.084Z,4.55
2022-10-13T03:13:53.601Z,4.88
2022-10-13T03:16:25.870Z,4.88
2022-10-13T03:18:53.841Z,4.57
2022-10-13T03:21:22.247Z,4.20
2022-10-13T03:23:51.654Z,4.28
2022-10-13T03:26:20.042Z,4.28
2022-10-13T03:28:50.135Z,4.70
2022-10-13T03:31:19.069Z,5.95
2022-10-13T03:33:48.678Z,4.75
2022-10-13T03:36:16.473Z,4.18
2022-10-13T03:38:47.209Z,4.45
2022-10-13T03:41:17.595Z,4.60
2022-10-13T03:43:48.991Z,4.65
2022-10-13T03:46:17.590Z,4.63
2022-10-13T03:48:49.186Z,4.50
2022-10-13T03:51:18.942Z,4.68
2022-10-13T03:53:47.207Z,5.15
2022-10-13T03:56:18.411Z,4.72
2022-10-13T03:58:54.840Z,5.45
2022-10-13T04:01:23.857Z,5.25
2022-10-13T04:03:53.903Z,5.10
2022-10-13T04:06:22.880Z,5.45
2022-10-13T04:08:51.752Z,6.00
2022-10-13T04:11:21.798Z,4.80
2022-10-13T04:13:52.794Z,4.60
2022-10-13T04:16:21.273Z,4.90
2022-10-13T04:18:52.539Z,5.25
2022-10-13T04:21:20.510Z,3.75
2022-10-13T04:23:51.737Z,5.38
2022-10-13T04:26:20.530Z,5.18
2022-10-13T04:28:52.571Z,5.50
2022-10-13T04:31:23.186Z,6.22
2022-10-13T04:33:51.544Z,6.55
2022-10-13T04:36:20.035Z,6.07
2022-10-13T04:38:51.005Z,5.80
2022-10-13T04:41:19.790Z,6.65
2022-10-13T04:43:50.156Z,6.13
2022-10-13T04:46:19.657Z,5.97
2022-10-13T04:48:49.856Z,5.95
2022-10-13T04:51:19.000Z,6.05
2022-10-13T04:53:47.888Z,6.13
2022-10-13T04:56:18.321Z,5.85
2022-10-13T04:58:47.137Z,5.88
2022-10-13T05:01:21.815Z,6.90
2022-10-13T05:03:51.937Z,5.90
2022-10-13T05:06:20.834Z,6.47
2022-10-13T05:08:52.541Z,5.85
2022-10-13T05:11:20.937Z,5.90
2022-10-13T05:13:49.891Z,6.72
2022-10-13T05:16:21.193Z,6.18
2022-10-13T05:18:49.613Z,6.25
2022-10-13T05:21:18.936Z,5.07
2022-10-13T05:23:48.912Z,6.55
2022-10-13T05:26:18.947Z,6.53
2022-10-13T05:28:49.703Z,7.57
2022-10-13T05:31:18.752Z,6.78
2022-10-13T05:33:48.723Z,7.35
2022-10-13T05:36:22.876Z,8.52
2022-10-13T05:38:52.088Z,6.93
2022-10-13T05:41:20.624Z,6.95
2022-10-13T05:43:48.840Z,6.65
2022-10-13T05:46:16.830Z,7.93
2022-10-13T05:48:44.702Z,2.92
2022-10-13T05:51:15.535Z,2.72
2022-10-13T05:53:49.576Z,6.90
2022-10-13T05:56:21.939Z,7.50
2022-10-13T05:58:51.733Z,6.90
2022-10-13T06:01:20.999Z,8.45
2022-10-13T06:03:50.741Z,6.55
2022-10-13T06:06:20.778Z,7.15
2022-10-13T06:08:49.032Z,7.40
2022-10-13T06:11:21.106Z,7.07
2022-10-13T06:13:50.082Z,6.47
2022-10-13T06:16:18.156Z,7.35
2022-10-13T06:18:46.436Z,6.03
2022-10-13T06:21:14.889Z,5.38
2022-10-13T06:23:44.941Z,6.57
2022-10-13T06:26:12.864Z,6.90
2022-10-13T06:28:46.244Z,6.00
2022-10-13T06:31:17.245Z,6.22
2022-10-13T06:33:45.214Z,6.40
2022-10-13T06:36:13.730Z,7.38
2022-10-13T06:38:41.878Z,5.90
2022-10-13T06:41:14.342Z,6.63
2022-10-13T06:43:42.709Z,6.13
2022-10-13T06:46:12.057Z,6.78
2022-10-13T06:48:40.587Z,6.30
2022-10-13T06:51:10.452Z,6.07
2022-10-13T06:53:39.734Z,5.85
2022-10-13T06:56:08.417Z,5.95
2022-10-13T06:58:38.471Z,6.53
2022-10-13T07:01:07.003Z,6.32
2022-10-13T07:03:35.012Z,6.18
2022-10-13T07:06:03.521Z,6.47
2022-10-13T07:08:32.399Z,5.85
2022-10-13T07:11:00.384Z,6.00
2022-10-13T07:13:30.407Z,5.15
2022-10-13T07:16:04.315Z,5.65
2022-10-13T07:18:33.044Z,5.97
2022-10-13T07:21:02.441Z,6.32
2022-10-13T07:23:32.032Z,4.70
2022-10-13T07:26:01.370Z,5.40
2022-10-13T07:28:32.331Z,5.60
2022-10-13T07:31:02.558Z,4.97
2022-10-13T07:33:30.561Z,5.40
2022-10-13T07:36:00.512Z,5.38
2022-10-13T07:38:28.400Z,5.75
2022-10-13T07:40:56.966Z,5.15
2022-10-13T07:43:24.963Z,5.28
2022-10-13T07:45:53.000Z,5.72
2022-10-13T07:50:58.802Z,3.85
2022-10-13T07:53:27.115Z,5.53
2022-10-13T07:55:57.788Z,5.05
2022-10-13T07:58:26.435Z,5.18
2022-10-13T08:00:59.488Z,5.25
2022-10-13T08:03:31.708Z,4.90
2022-10-13T08:06:01.950Z,5.50
2022-10-13T08:08:30.771Z,5.50
2022-10-13T08:11:03.414Z,5.57
2022-10-13T08:13:32.814Z,4.75
2022-10-13T08:16:09.410Z,5.22
2022-10-13T08:18:41.294Z,5.50
2022-10-13T08:21:39.027Z,4.85
2022-10-13T08:23:59.095Z,5.07
2022-10-13T08:26:30.607Z,6.45
2022-10-13T08:31:47.100Z,5.45
2022-10-13T08:34:18.107Z,5.55
2022-10-13T08:36:47.893Z,6.32
2022-10-13T08:39:16.118Z,6.10
2022-10-13T08:41:45.139Z,4.93
2022-10-13T08:47:13.633Z,4.90
2022-10-13T08:49:43.813Z,4.68
2022-10-13T08:52:18.082Z,4.18
2022-10-13T08:54:46.761Z,4.15
2022-10-13T08:57:16.541Z,5.22
2022-10-13T08:59:44.841Z,4.82
2022-10-13T09:02:13.901Z,5.38
2022-10-13T09:04:46.596Z,5.82
2022-10-13T09:07:17.610Z,5.32
2022-10-13T09:09:45.849Z,5.75
2022-10-13T09:12:15.900Z,6.68
2022-10-13T09:14:43.897Z,6.53
2022-10-13T09:17:17.215Z,5.80
2022-10-13T09:19:46.642Z,5.40
2022-10-13T09:22:17.301Z,5.78
2022-10-13T09:24:45.398Z,4.93
2022-10-13T09:27:18.691Z,5.72
2022-10-13T09:29:46.842Z,5.38
2022-10-13T09:32:16.666Z,5.88
2022-10-13T09:34:44.514Z,5.63
2022-10-13T09:37:22.700Z,5.20
2022-10-13T09:40:02.422Z,5.60
2022-10-13T09:42:31.784Z,4.72
2022-10-13T09:45:04.460Z,4.97
2022-10-13T09:47:33.334Z,4.82
2022-10-13T09:50:06.676Z,5.13
2022-10-13T09:52:38.672Z,5.55
2022-10-13T09:55:32.389Z,5.18
2022-10-13T09:58:05.166Z,5.00
2022-10-13T10:00:34.184Z,4.75
2022-10-13T10:03:03.979Z,4.68
2022-10-13T10:05:39.489Z,4.68
2022-10-13T10:08:14.021Z,4.90
2022-10-13T10:10:42.631Z,4.72
2022-10-13T10:13:11.649Z,5.10
2022-10-13T10:15:46.791Z,4.30
2022-10-13T10:18:19.887Z,4.78
2022-10-13T10:20:58.058Z,4.78
2022-10-13T10:23:31.298Z,4.18
2022-10-13T10:26:00.906Z,4.85
2022-10-13T10:28:48.974Z,4.22
2022-10-13T10:31:22.329Z,4.97
2022-10-13T10:33:56.791Z,5.50
2022-10-13T10:36:30.396Z,5.47
2022-10-13T10:39:07.055Z,4.80
2022-10-13T10:41:40.020Z,5.75
2022-10-13T10:44:10.346Z,4.78
2022-10-13T10:46:44.550Z,5.13
2022-10-13T10:49:15.674Z,5.35
2022-10-13T10:51:43.625Z,4.75
2022-10-13T10:54:19.048Z,4.68
2022-10-13T10:56:55.705Z,3.72
2022-10-13T10:59:28.081Z,4.55
2022-10-13T11:02:02.140Z,5.47
2022-10-13T11:04:44.697Z,4.63
2022-10-13T11:07:13.537Z,5.10
2022-10-13T11:10:01.436Z,3.70
2022-10-13T11:12:47.114Z,3.67
2022-10-13T11:15:17.369Z,4.15
2022-10-13T11:17:45.046Z,4.78
2022-10-13T11:20:27.923Z,3.47
2022-10-13T11:23:11.598Z,5.15
2022-10-13T11:25:40.628Z,3.83
2022-10-13T11:28:23.397Z,3.97
2022-10-13T11:30:55.498Z,4.60
2022-10-13T11:33:42.140Z,3.72
2022-10-13T11:36:40.583Z,5.57
2022-10-13T11:39:23.878Z,4.93
2022-10-13T11:41:56.249Z,4.45
2022-10-13T11:47:01.453Z,2.50
2022-10-13T11:49:50.568Z,4.03
2022-10-13T11:52:28.373Z,4.45
2022-10-13T11:55:02.351Z,5.00
2022-10-13T11:57:32.838Z,3.47
2022-10-13T12:00:03.503Z,4.15
2022-10-13T12:02:48.528Z,6.03
2022-10-13T12:05:23.158Z,5.13
2022-10-13T12:07:51.994Z,5.28
2022-10-13T12:10:21.912Z,5.70
2022-10-13T12:12:50.587Z,5.57
2022-10-13T12:15:29.903Z,5.63
2022-10-13T12:17:59.462Z,6.00
2022-10-13T12:20:33.812Z,5.65
2022-10-13T12:23:02.300Z,3.60
2022-10-13T12:25:31.090Z,2.92
2022-10-13T12:28:00.009Z,5.75
2022-10-13T12:30:29.845Z,5.80
2022-10-13T12:33:01.394Z,5.13
2022-10-13T12:35:30.781Z,6.65
2022-10-13T12:38:04.224Z,5.43
2022-10-13T12:40:35.283Z,3.95
2022-10-13T12:43:04.976Z,5.45
2022-10-13T12:45:35.692Z,5.80
2022-10-13T12:48:04.930Z,5.53
2022-10-13T12:50:34.205Z,5.50
2022-10-13T12:53:06.801Z,4.07
2022-10-13T12:55:34.827Z,6.68
2022-10-13T12:58:04.198Z,5.30
2022-10-13T13:00:32.403Z,5.45
2022-10-13T13:03:02.830Z,5.80
2022-10-13T13:05:36.422Z,6.38
2022-10-13T13:08:08.097Z,5.47
2022-10-13T13:10:36.400Z,5.05
2022-10-13T13:13:14.194Z,4.97
2022-10-13T13:15:43.060Z,2.90
2022-10-13T13:18:24.508Z,1.42
2022-10-13T13:20:54.275Z,6.32
2022-10-13T13:23:23.399Z,5.75
2022-10-13T13:26:02.678Z,5.40
2022-10-13T13:28:30.919Z,5.78
2022-10-13T13:31:02.931Z,5.25
2022-10-13T13:33:31.425Z,4.18
2022-10-13T13:36:02.793Z,5.43
2022-10-13T13:38:30.596Z,5.00
2022-10-13T13:41:02.930Z,4.07
2022-10-13T13:43:32.271Z,4.05
2022-10-13T13:46:00.264Z,4.22
2022-10-13T13:48:27.917Z,4.97
2022-10-13T13:50:55.864Z,4.55
2022-10-13T13:53:26.443Z,4.53
2022-10-13T13:55:59.490Z,5.05
2022-10-13T13:58:27.344Z,4.95
2022-10-13T14:00:55.612Z,4.88
2022-10-13T14:03:24.003Z,4.55
2022-10-13T14:05:51.968Z,2.53
2022-10-13T14:08:20.179Z,2.80
2022-10-13T14:10:50.032Z,4.75
2022-10-13T14:13:19.798Z,4.65
2022-10-13T14:15:47.949Z,3.83
2022-10-13T14:18:18.473Z,4.43
2022-10-13T14:20:46.572Z,4.53
2022-10-13T14:23:16.424Z,4.47
2022-10-13T14:25:44.442Z,4.75
2022-10-13T14:28:18.231Z,4.32
2022-10-13T14:30:46.764Z,5.03
2022-10-13T14:33:20.150Z,5.78
2022-10-13T14:35:50.029Z,3.78
2022-10-13T14:38:19.655Z,5.03
2022-10-13T14:40:48.504Z,5.80
2022-10-13T14:43:25.254Z,5.32
2022-10-13T14:45:53.699Z,6.07
2022-10-13T14:48:24.859Z,5.43
2022-10-13T14:50:53.472Z,5.15
2022-10-13T14:53:21.681Z,4.03
2022-10-13T14:55:49.949Z,5.07
2022-10-13T14:58:20.352Z,4.93
2022-10-13T15:00:48.202Z,5.57
2022-10-13T15:03:18.240Z,5.68
2022-10-13T15:05:45.947Z,5.63
2022-10-13T15:08:16.514Z,5.55
2022-10-13T15:10:45.238Z,5.35
2022-10-13T15:13:13.163Z,5.55
2022-10-13T15:15:48.728Z,5.05
2022-10-13T15:18:18.897Z,4.28
2022-10-13T15:20:47.646Z,1.88
2022-10-13T15:23:15.717Z,3.75
2022-10-13T15:25:52.093Z,4.72
2022-10-13T15:28:22.300Z,4.45
2022-10-13T15:30:51.750Z,5.38
2022-10-13T15:33:22.365Z,5.22
2022-10-13T15:35:50.397Z,4.63
2022-10-13T15:38:18.963Z,4.88
2022-10-13T15:40:46.800Z,5.00
2022-10-13T15:43:14.957Z,6.00
2022-10-13T15:45:42.640Z,6.40
2022-10-13T15:48:12.490Z,5.93
2022-10-13T15:50:46.592Z,5.78
2022-10-13T15:53:15.056Z,5.75
2022-10-13T15:55:43.045Z,5.95
2022-10-13T15:58:13.729Z,5.97
2022-10-13T16:00:42.613Z,5.72
2022-10-13T16:03:16.167Z,5.25
2022-10-13T16:05:44.473Z,6.07
2022-10-13T16:08:12.491Z,6.03
2022-10-13T16:10:43.840Z,7.25
2022-10-13T16:13:14.422Z,6.88
2022-10-13T16:15:42.288Z,7.40
2022-10-13T16:18:09.989Z,7.05
2022-10-13T16:20:40.824Z,8.18
2022-10-13T16:23:08.726Z,8.45
2022-10-13T16:25:40.308Z,7.68
2022-10-13T16:28:10.126Z,7.82
2022-10-13T16:30:39.205Z,4.40
2022-10-13T16:33:07.138Z,5.72
2022-10-13T16:35:35.360Z,5.35
2022-10-13T16:38:05.146Z,4.88
2022-10-13T16:40:33.078Z,4.00
2022-10-13T16:43:02.131Z,0.65
2022-10-13T16:45:47.728Z,1.65
2022-10-13T16:48:17.784Z,1.38
2022-10-13T16:50:45.890Z,1.75
2022-10-13T16:53:18.085Z,1.00
2022-10-13T16:55:45.778Z,1.30
2022-10-13T16:58:16.140Z,1.20
2022-10-13T17:00:44.085Z,1.55
2022-10-13T17:03:11.914Z,1.75
2022-10-13T17:05:39.917Z,1.02
2022-10-13T17:08:11.121Z,1.45
2022-10-13T17:10:40.785Z,1.48
2022-10-13T17:13:08.684Z,2.42
2022-10-13T17:15:36.865Z,1.92
2022-10-13T17:18:05.207Z,2.28
2022-10-13T17:20:32.939Z,2.45
2022-10-13T17:23:00.840Z,1.55
2022-10-13T17:25:31.024Z,2.55
2022-10-13T17:28:00.369Z,2.30
2022-10-13T17:30:28.238Z,1.95
2022-10-13T17:32:57.817Z,2.45
2022-10-13T17:35:28.682Z,2.50
2022-10-13T17:37:57.871Z,2.78
2022-10-13T17:40:25.862Z,2.63
2022-10-13T17:42:53.654Z,2.33
2022-10-13T17:45:24.302Z,2.50
2022-10-13T17:47:52.429Z,2.10
2022-10-13T17:50:23.042Z,2.08
2022-10-13T17:52:52.057Z,2.90
2022-10-13T17:55:19.770Z,2.45
2022-10-13T17:57:47.470Z,2.75
2022-10-13T18:01:12.385Z,2.08
2022-10-13T18:03:44.300Z,2.20
2022-10-13T18:06:13.906Z,2.05
2022-10-13T18:08:42.342Z,1.95
2022-10-13T18:11:11.029Z,1.73
2022-10-13T18:13:38.980Z,1.75
2022-10-13T18:16:08.270Z,2.80
2022-10-13T18:18:36.561Z,2.63
2022-10-13T18:21:07.171Z,2.40
2022-10-13T18:23:36.654Z,2.60
2022-10-13T18:26:05.209Z,2.60
2022-10-13T18:28:33.545Z,2.33
2022-10-13T18:31:05.321Z,2.20
2022-10-13T18:33:33.075Z,2.58
2022-10-13T18:36:01.584Z,2.10
2022-10-13T18:38:31.440Z,2.85
2022-10-13T18:41:00.458Z,2.33
2022-10-13T18:43:31.025Z,2.47
2022-10-13T18:46:00.329Z,2.42
2022-10-13T18:48:28.305Z,2.75
2022-10-13T18:50:56.453Z,2.10
2022-10-13T18:53:28.054Z,2.40
2022-10-13T18:56:03.281Z,2.40
2022-10-13T18:58:32.713Z,2.10
2022-10-13T19:01:02.305Z,2.33
2022-10-13T19:03:30.187Z,2.30
2022-10-13T19:05:59.254Z,2.78
2022-10-13T19:08:28.280Z,2.63
2022-10-13T19:10:56.331Z,2.42
2022-10-13T19:13:29.183Z,2.40
2022-10-13T19:16:00.329Z,2.33
2022-10-13T19:18:28.781Z,2.30
2022-10-13T19:21:03.813Z,2.03
2022-10-13T19:23:32.951Z,2.63
2022-10-13T19:26:09.030Z,2.80
2022-10-13T19:28:44.388Z,6.47
2022-10-13T19:31:14.578Z,6.18
2022-10-13T19:33:44.944Z,5.60
2022-10-13T19:36:14.568Z,6.40
2022-10-13T19:38:44.398Z,5.90
2022-10-13T19:41:13.347Z,6.88
2022-10-13T19:43:47.553Z,6.18
2022-10-13T19:46:15.337Z,7.05
2022-10-13T19:48:43.721Z,6.57
2022-10-13T19:51:12.569Z,6.18
2022-10-13T19:53:41.368Z,6.40
2022-10-13T19:56:11.006Z,6.90
2022-10-13T19:58:38.694Z,8.20
2022-10-13T20:01:08.734Z,10.05
2022-10-13T20:03:39.304Z,6.78
2022-10-13T20:06:07.223Z,7.40
2022-10-13T20:08:42.590Z,6.90
2022-10-13T20:11:11.664Z,6.32
2022-10-13T20:13:41.017Z,6.60
2022-10-13T20:16:13.467Z,7.10
2022-10-13T20:18:41.831Z,6.32
2022-10-13T20:21:12.451Z,5.85
2022-10-13T20:23:41.354Z,6.65
2022-10-13T20:26:10.890Z,6.15
2022-10-13T20:28:43.040Z,6.68
2022-10-13T20:31:18.999Z,6.68
2022-10-13T20:33:49.868Z,6.65
2022-10-13T20:36:21.977Z,6.78
2022-10-13T20:38:50.933Z,6.55
2022-10-13T20:41:19.811Z,6.10
2022-10-13T20:43:48.663Z,6.80
2022-10-13T20:46:20.344Z,6.22
2022-10-13T20:49:10.012Z,6.50
2022-10-13T20:51:36.694Z,6.18
2022-10-13T20:54:06.886Z,5.63
2022-10-13T20:56:35.397Z,6.82
2022-10-13T20:59:03.520Z,6.13
2022-10-13T21:01:33.073Z,6.40
2022-10-13T21:04:01.766Z,6.45
2022-10-13T21:06:29.731Z,6.90
2022-10-13T21:09:01.363Z,13.93
2022-10-13T21:11:30.331Z,10.15
2022-10-13T21:13:59.478Z,8.95
2022-10-13T21:16:28.166Z,7.00
2022-10-13T21:18:58.022Z,6.95
2022-10-13T21:21:26.886Z,7.63
2022-10-13T21:23:56.090Z,7.00
2022-10-13T21:26:24.766Z,7.22
2022-10-13T21:28:52.591Z,6.60
2022-10-13T21:31:21.426Z,7.85
2022-10-13T21:33:50.475Z,6.95
2022-10-13T21:36:21.013Z,6.78
2022-10-13T21:38:49.329Z,6.55
2022-10-13T21:41:17.490Z,7.25
2022-10-13T21:43:45.209Z,7.03
2022-10-13T21:46:14.822Z,7.25
2022-10-13T21:48:46.002Z,6.45
2022-10-13T21:51:14.811Z,7.18
2022-10-13T21:53:49.286Z,7.10
2022-10-13T21:56:17.251Z,7.18
2022-10-13T21:58:46.479Z,6.68
2022-10-13T22:01:14.687Z,7.15
2022-10-13T22:03:44.022Z,6.80
2022-10-13T22:06:17.628Z,7.20
2022-10-13T22:08:48.622Z,6.30
2022-10-13T22:11:22.600Z,6.93
2022-10-13T22:13:51.738Z,6.53
2022-10-13T22:16:20.507Z,6.85
2022-10-13T22:18:48.820Z,7.10
2022-10-13T22:21:17.867Z,6.90
2022-10-13T22:23:48.174Z,6.43
2022-10-13T22:26:19.809Z,6.63
2022-10-13T22:28:51.579Z,6.75
2022-10-13T22:31:21.670Z,6.68
2022-10-13T22:33:51.862Z,6.25
2022-10-13T22:36:20.975Z,7.13
2022-10-13T22:38:50.877Z,6.90
2022-10-13T22:41:21.888Z,6.95
2022-10-13T22:43:50.526Z,6.85
2022-10-13T22:46:21.583Z,6.38
2022-10-13T22:48:49.319Z,6.07
2022-10-13T22:51:19.080Z,6.85
2022-10-13T22:53:47.396Z,7.20
2022-10-13T22:56:18.172Z,6.40
2022-10-13T22:58:49.460Z,6.38
2022-10-13T23:01:18.511Z,6.45
2022-10-13T23:03:48.021Z,6.93
2022-10-13T23:06:16.221Z,6.30
2022-10-13T23:08:44.318Z,6.35
2022-10-13T23:11:12.861Z,6.53
2022-10-13T23:13:42.790Z,6.47
2022-10-13T23:16:11.873Z,6.40
2022-10-13T23:18:43.760Z,6.45
2022-10-13T23:21:24.393Z,6.65
2022-10-13T23:23:55.070Z,7.20
2022-10-13T23:26:24.026Z,6.82
2022-10-13T23:28:55.872Z,7.82
2022-10-13T23:31:24.214Z,6.90
2022-10-13T23:33:53.385Z,6.80
2022-10-13T23:36:21.973Z,7.45
2022-10-13T23:38:55.257Z,6.80
2022-10-13T23:41:24.553Z,6.68
2022-10-13T23:43:54.539Z,6.65
2022-10-13T23:46:22.751Z,7.43
2022-10-13T23:48:53.622Z,6.88
2022-10-13T23:51:23.513Z,7.00
2022-10-13T23:53:52.844Z,7.22
2022-10-13T23:56:21.713Z,7.55
2022-10-13T23:58:50.362Z,7.18
